sensor_id;sensor_type;location;lat;lon;timestamp;P1;durP1;ratioP1;P2;durP2;ratioP2
22929;SDS011;11630;42.660;23.292;2022-12-18T00:01:47;6.53;;;5.87;;
22929;SDS011;11630;42.660;23.292;2022-12-18T00:04:22;6.77;;;6.07;;
22929;SDS011;11630;42.660;23.292;2022-12-18T00:06:53;7.07;;;6.10;;
22929;SDS011;11630;42.660;23.292;2022-12-18T00:09:24;8.67;;;6.27;;
22929;SDS011;11630;42.660;23.292;2022-12-18T00:11:55;7.50;;;6.20;;
22929;SDS011;11630;42.660;23.292;2022-12-18T00:14:25;8.00;;;7.00;;
22929;SDS011;11630;42.660;23.292;2022-12-18T00:16:55;8.03;;;6.20;;
22929;SDS011;11630;42.660;23.292;2022-12-18T00:19:27;12.00;;;7.50;;
22929;SDS011;11630;42.660;23.292;2022-12-18T00:21:57;7.50;;;6.53;;
22929;SDS011;11630;42.660;23.292;2022-12-18T00:24:28;9.17;;;7.50;;
22929;SDS011;11630;42.660;23.292;2022-12-18T00:27:02;8.67;;;7.20;;
22929;SDS011;11630;42.660;23.292;2022-12-18T00:29:33;9.73;;;6.97;;
22929;SDS011;11630;42.660;23.292;2022-12-18T00:32:07;8.87;;;7.13;;
22929;SDS011;11630;42.660;23.292;2022-12-18T00:34:38;8.40;;;7.03;;
22929;SDS011;11630;42.660;23.292;2022-12-18T00:37:09;8.73;;;7.50;;
22929;SDS011;11630;42.660;23.292;2022-12-18T00:39:40;7.77;;;6.73;;
22929;SDS011;11630;42.660;23.292;2022-12-18T00:42:10;7.47;;;6.60;;
22929;SDS011;11630;42.660;23.292;2022-12-18T00:44:58;8.30;;;7.33;;
22929;SDS011;11630;42.660;23.292;2022-12-18T00:47:29;8.23;;;7.33;;
22929;SDS011;11630;42.660;23.292;2022-12-18T00:50:00;9.33;;;6.63;;
22929;SDS011;11630;42.660;23.292;2022-12-18T00:52:31;7.20;;;6.27;;
22929;SDS011;11630;42.660;23.292;2022-12-18T00:55:01;8.50;;;7.43;;
22929;SDS011;11630;42.660;23.292;2022-12-18T00:57:30;8.47;;;7.17;;
22929;SDS011;11630;42.660;23.292;2022-12-18T01:00:00;11.20;;;8.00;;
22929;SDS011;11630;42.660;23.292;2022-12-18T01:02:31;11.77;;;8.50;;
22929;SDS011;11630;42.660;23.292;2022-12-18T01:05:03;8.17;;;6.27;;
22929;SDS011;11630;42.660;23.292;2022-12-18T01:07:33;7.47;;;6.63;;
22929;SDS011;11630;42.660;23.292;2022-12-18T01:10:04;8.60;;;7.17;;
22929;SDS011;11630;42.660;23.292;2022-12-18T01:12:35;9.30;;;6.77;;
22929;SDS011;11630;42.660;23.292;2022-12-18T01:15:06;9.20;;;7.47;;
22929;SDS011;11630;42.660;23.292;2022-12-18T01:17:36;10.40;;;7.63;;
22929;SDS011;11630;42.660;23.292;2022-12-18T01:20:08;9.17;;;7.50;;
22929;SDS011;11630;42.660;23.292;2022-12-18T01:22:41;8.67;;;7.77;;
22929;SDS011;11630;42.660;23.292;2022-12-18T01:25:12;10.33;;;7.83;;
22929;SDS011;11630;42.660;23.292;2022-12-18T01:27:43;14.07;;;8.87;;
22929;SDS011;11630;42.660;23.292;2022-12-18T01:30:13;10.40;;;7.97;;
22929;SDS011;11630;42.660;23.292;2022-12-18T01:32:44;11.57;;;8.93;;
22929;SDS011;11630;42.660;23.292;2022-12-18T01:35:16;11.10;;;8.17;;
22929;SDS011;11630;42.660;23.292;2022-12-18T01:37:47;10.77;;;8.20;;
22929;SDS011;11630;42.660;23.292;2022-12-18T01:40:17;11.47;;;8.93;;
22929;SDS011;11630;42.660;23.292;2022-12-18T01:42:52;10.37;;;8.20;;
22929;SDS011;11630;42.660;23.292;2022-12-18T01:45:23;13.07;;;9.17;;
22929;SDS011;11630;42.660;23.292;2022-12-18T01:48:03;15.43;;;9.33;;
22929;SDS011;11630;42.660;23.292;2022-12-18T01:50:38;14.80;;;8.50;;
22929;SDS011;11630;42.660;23.292;2022-12-18T01:53:17;11.03;;;8.90;;
22929;SDS011;11630;42.660;23.292;2022-12-18T01:55:53;13.77;;;9.60;;
22929;SDS011;11630;42.660;23.292;2022-12-18T01:58:35;11.57;;;8.73;;
22929;SDS011;11630;42.660;23.292;2022-12-18T02:01:11;12.17;;;9.13;;
22929;SDS011;11630;42.660;23.292;2022-12-18T02:03:41;9.47;;;8.07;;
22929;SDS011;11630;42.660;23.292;2022-12-18T02:06:15;11.77;;;8.67;;
22929;SDS011;11630;42.660;23.292;2022-12-18T02:09:17;10.63;;;8.27;;
22929;SDS011;11630;42.660;23.292;2022-12-18T02:12:04;12.23;;;8.83;;
22929;SDS011;11630;42.660;23.292;2022-12-18T02:14:38;12.57;;;9.57;;
22929;SDS011;11630;42.660;23.292;2022-12-18T02:17:22;10.00;;;8.97;;
22929;SDS011;11630;42.660;23.292;2022-12-18T02:20:07;13.87;;;9.30;;
22929;SDS011;11630;42.660;23.292;2022-12-18T02:28:31;10.83;;;8.83;;
22929;SDS011;11630;42.660;23.292;2022-12-18T02:31:06;11.70;;;9.03;;
22929;SDS011;11630;42.660;23.292;2022-12-18T02:33:37;10.47;;;8.23;;
22929;SDS011;11630;42.660;23.292;2022-12-18T02:36:10;12.37;;;9.40;;
22929;SDS011;11630;42.660;23.292;2022-12-18T02:38:41;10.67;;;8.93;;
22929;SDS011;11630;42.660;23.292;2022-12-18T02:41:15;12.03;;;8.43;;
22929;SDS011;11630;42.660;23.292;2022-12-18T02:43:47;9.90;;;8.87;;
22929;SDS011;11630;42.660;23.292;2022-12-18T02:46:25;11.20;;;8.17;;
22929;SDS011;11630;42.660;23.292;2022-12-18T02:48:52;13.33;;;8.73;;
22929;SDS011;11630;42.660;23.292;2022-12-18T02:51:28;10.67;;;8.70;;
22929;SDS011;11630;42.660;23.292;2022-12-18T02:54:05;10.10;;;7.97;;
22929;SDS011;11630;42.660;23.292;2022-12-18T02:56:47;9.60;;;7.90;;
22929;SDS011;11630;42.660;23.292;2022-12-18T02:59:19;10.77;;;8.00;;
22929;SDS011;11630;42.660;23.292;2022-12-18T03:01:58;10.87;;;8.00;;
22929;SDS011;11630;42.660;23.292;2022-12-18T03:04:39;12.50;;;8.43;;
22929;SDS011;11630;42.660;23.292;2022-12-18T03:07:12;10.97;;;8.10;;
22929;SDS011;11630;42.660;23.292;2022-12-18T03:09:43;10.33;;;8.23;;
22929;SDS011;11630;42.660;23.292;2022-12-18T03:12:19;9.77;;;7.87;;
22929;SDS011;11630;42.660;23.292;2022-12-18T03:17:41;10.60;;;7.90;;
22929;SDS011;11630;42.660;23.292;2022-12-18T03:20:14;9.03;;;7.40;;
22929;SDS011;11630;42.660;23.292;2022-12-18T03:22:47;10.57;;;7.50;;
22929;SDS011;11630;42.660;23.292;2022-12-18T03:25:18;10.83;;;6.63;;
22929;SDS011;11630;42.660;23.292;2022-12-18T03:27:52;9.17;;;6.33;;
22929;SDS011;11630;42.660;23.292;2022-12-18T03:30:24;8.93;;;6.37;;
22929;SDS011;11630;42.660;23.292;2022-12-18T03:35:39;7.47;;;6.70;;
22929;SDS011;11630;42.660;23.292;2022-12-18T03:38:13;7.53;;;6.53;;
22929;SDS011;11630;42.660;23.292;2022-12-18T03:43:39;7.37;;;6.20;;
22929;SDS011;11630;42.660;23.292;2022-12-18T03:46:09;7.20;;;4.70;;
22929;SDS011;11630;42.660;23.292;2022-12-18T03:48:46;7.43;;;5.27;;
22929;SDS011;11630;42.660;23.292;2022-12-18T03:51:19;11.07;;;7.33;;
22929;SDS011;11630;42.660;23.292;2022-12-18T03:53:59;9.10;;;6.93;;
22929;SDS011;11630;42.660;23.292;2022-12-18T03:56:33;7.50;;;6.40;;
22929;SDS011;11630;42.660;23.292;2022-12-18T03:59:04;9.33;;;7.17;;
22929;SDS011;11630;42.660;23.292;2022-12-18T04:01:39;6.93;;;6.23;;
22929;SDS011;11630;42.660;23.292;2022-12-18T04:04:11;10.17;;;6.67;;
22929;SDS011;11630;42.660;23.292;2022-12-18T04:06:45;6.83;;;6.00;;
22929;SDS011;11630;42.660;23.292;2022-12-18T04:09:18;11.70;;;7.97;;
22929;SDS011;11630;42.660;23.292;2022-12-18T04:11:49;7.60;;;5.23;;
22929;SDS011;11630;42.660;23.292;2022-12-18T04:14:21;7.37;;;6.13;;
22929;SDS011;11630;42.660;23.292;2022-12-18T04:16:51;9.40;;;7.30;;
22929;SDS011;11630;42.660;23.292;2022-12-18T04:19:22;7.43;;;5.70;;
22929;SDS011;11630;42.660;23.292;2022-12-18T04:21:53;8.47;;;7.03;;
22929;SDS011;11630;42.660;23.292;2022-12-18T04:24:24;11.17;;;7.33;;
22929;SDS011;11630;42.660;23.292;2022-12-18T04:26:54;9.87;;;6.80;;
22929;SDS011;11630;42.660;23.292;2022-12-18T04:29:23;12.47;;;8.07;;
22929;SDS011;11630;42.660;23.292;2022-12-18T04:31:54;8.77;;;6.43;;
22929;SDS011;11630;42.660;23.292;2022-12-18T04:34:25;7.80;;;4.13;;
22929;SDS011;11630;42.660;23.292;2022-12-18T04:36:56;9.67;;;7.63;;
22929;SDS011;11630;42.660;23.292;2022-12-18T04:39:27;13.03;;;8.67;;
22929;SDS011;11630;42.660;23.292;2022-12-18T04:41:58;10.17;;;7.40;;
22929;SDS011;11630;42.660;23.292;2022-12-18T04:44:29;11.20;;;6.63;;
22929;SDS011;11630;42.660;23.292;2022-12-18T04:47:00;6.87;;;5.07;;
22929;SDS011;11630;42.660;23.292;2022-12-18T04:49:29;13.00;;;8.07;;
22929;SDS011;11630;42.660;23.292;2022-12-18T04:52:00;13.47;;;9.83;;
22929;SDS011;11630;42.660;23.292;2022-12-18T04:54:30;11.30;;;8.17;;
22929;SDS011;11630;42.660;23.292;2022-12-18T04:57:01;10.23;;;7.73;;
22929;SDS011;11630;42.660;23.292;2022-12-18T04:59:32;12.50;;;8.87;;
22929;SDS011;11630;42.660;23.292;2022-12-18T05:02:03;13.30;;;8.90;;
22929;SDS011;11630;42.660;23.292;2022-12-18T05:04:33;15.60;;;9.90;;
22929;SDS011;11630;42.660;23.292;2022-12-18T05:07:03;14.33;;;8.27;;
22929;SDS011;11630;42.660;23.292;2022-12-18T05:09:34;12.63;;;9.73;;
22929;SDS011;11630;42.660;23.292;2022-12-18T05:12:05;13.27;;;8.70;;
22929;SDS011;11630;42.660;23.292;2022-12-18T05:14:36;14.30;;;9.23;;
22929;SDS011;11630;42.660;23.292;2022-12-18T05:17:06;16.07;;;10.63;;
22929;SDS011;11630;42.660;23.292;2022-12-18T05:19:37;14.60;;;10.60;;
22929;SDS011;11630;42.660;23.292;2022-12-18T05:22:07;14.90;;;11.00;;
22929;SDS011;11630;42.660;23.292;2022-12-18T05:24:39;18.43;;;12.33;;
22929;SDS011;11630;42.660;23.292;2022-12-18T05:27:10;11.80;;;9.80;;
22929;SDS011;11630;42.660;23.292;2022-12-18T05:29:41;16.13;;;11.20;;
22929;SDS011;11630;42.660;23.292;2022-12-18T05:32:12;14.87;;;11.07;;
22929;SDS011;11630;42.660;23.292;2022-12-18T05:34:43;14.53;;;10.87;;
22929;SDS011;11630;42.660;23.292;2022-12-18T05:37:14;16.20;;;11.03;;
22929;SDS011;11630;42.660;23.292;2022-12-18T05:39:45;20.07;;;9.87;;
22929;SDS011;11630;42.660;23.292;2022-12-18T05:42:15;15.50;;;6.93;;
22929;SDS011;11630;42.660;23.292;2022-12-18T05:44:45;17.50;;;11.37;;
22929;SDS011;11630;42.660;23.292;2022-12-18T05:47:17;13.20;;;10.27;;
22929;SDS011;11630;42.660;23.292;2022-12-18T05:49:48;21.73;;;12.00;;
22929;SDS011;11630;42.660;23.292;2022-12-18T05:52:19;14.90;;;11.70;;
22929;SDS011;11630;42.660;23.292;2022-12-18T05:54:49;16.47;;;11.80;;
22929;SDS011;11630;42.660;23.292;2022-12-18T05:57:20;23.33;;;14.27;;
22929;SDS011;11630;42.660;23.292;2022-12-18T05:59:51;19.43;;;12.83;;
22929;SDS011;11630;42.660;23.292;2022-12-18T06:02:21;18.63;;;12.53;;
22929;SDS011;11630;42.660;23.292;2022-12-18T06:04:53;22.17;;;13.33;;
22929;SDS011;11630;42.660;23.292;2022-12-18T06:07:24;22.87;;;13.97;;
22929;SDS011;11630;42.660;23.292;2022-12-18T06:09:54;22.43;;;13.17;;
22929;SDS011;11630;42.660;23.292;2022-12-18T06:12:25;15.17;;;11.33;;
22929;SDS011;11630;42.660;23.292;2022-12-18T06:14:56;20.37;;;12.77;;
22929;SDS011;11630;42.660;23.292;2022-12-18T06:17:27;19.73;;;11.97;;
22929;SDS011;11630;42.660;23.292;2022-12-18T06:19:59;16.07;;;11.93;;
22929;SDS011;11630;42.660;23.292;2022-12-18T06:22:30;18.67;;;12.37;;
22929;SDS011;11630;42.660;23.292;2022-12-18T06:25:01;17.20;;;11.87;;
22929;SDS011;11630;42.660;23.292;2022-12-18T06:27:31;17.47;;;12.57;;
22929;SDS011;11630;42.660;23.292;2022-12-18T06:30:02;17.17;;;10.93;;
22929;SDS011;11630;42.660;23.292;2022-12-18T06:32:34;14.27;;;10.30;;
22929;SDS011;11630;42.660;23.292;2022-12-18T06:35:05;16.97;;;11.90;;
22929;SDS011;11630;42.660;23.292;2022-12-18T06:37:36;9.83;;;6.50;;
22929;SDS011;11630;42.660;23.292;2022-12-18T06:40:07;20.73;;;11.53;;
22929;SDS011;11630;42.660;23.292;2022-12-18T06:42:38;17.77;;;10.43;;
22929;SDS011;11630;42.660;23.292;2022-12-18T06:45:10;15.43;;;9.10;;
22929;SDS011;11630;42.660;23.292;2022-12-18T06:47:43;14.50;;;10.13;;
22929;SDS011;11630;42.660;23.292;2022-12-18T06:50:14;19.10;;;11.00;;
22929;SDS011;11630;42.660;23.292;2022-12-18T06:52:45;20.87;;;13.27;;
22929;SDS011;11630;42.660;23.292;2022-12-18T06:55:16;17.93;;;12.67;;
22929;SDS011;11630;42.660;23.292;2022-12-18T06:57:47;15.00;;;10.60;;
22929;SDS011;11630;42.660;23.292;2022-12-18T07:00:18;18.80;;;10.67;;
22929;SDS011;11630;42.660;23.292;2022-12-18T07:02:49;16.77;;;10.80;;
22929;SDS011;11630;42.660;23.292;2022-12-18T07:05:20;19.27;;;13.17;;
22929;SDS011;11630;42.660;23.292;2022-12-18T07:07:51;22.43;;;13.50;;
22929;SDS011;11630;42.660;23.292;2022-12-18T07:10:22;26.40;;;17.23;;
22929;SDS011;11630;42.660;23.292;2022-12-18T07:12:55;19.67;;;12.60;;
22929;SDS011;11630;42.660;23.292;2022-12-18T07:15:25;17.87;;;11.90;;
22929;SDS011;11630;42.660;23.292;2022-12-18T07:17:56;18.10;;;11.67;;
22929;SDS011;11630;42.660;23.292;2022-12-18T07:20:27;20.50;;;13.10;;
22929;SDS011;11630;42.660;23.292;2022-12-18T07:22:58;19.17;;;11.97;;
22929;SDS011;11630;42.660;23.292;2022-12-18T07:25:35;31.43;;;16.93;;
22929;SDS011;11630;42.660;23.292;2022-12-18T07:28:07;23.73;;;14.70;;
22929;SDS011;11630;42.660;23.292;2022-12-18T07:30:37;18.40;;;12.53;;
22929;SDS011;11630;42.660;23.292;2022-12-18T07:33:08;20.40;;;13.23;;
22929;SDS011;11630;42.660;23.292;2022-12-18T07:35:39;18.07;;;12.53;;
22929;SDS011;11630;42.660;23.292;2022-12-18T07:38:10;21.00;;;12.93;;
22929;SDS011;11630;42.660;23.292;2022-12-18T07:40:40;23.70;;;15.07;;
22929;SDS011;11630;42.660;23.292;2022-12-18T07:43:10;19.37;;;12.07;;
22929;SDS011;11630;42.660;23.292;2022-12-18T07:45:41;23.23;;;15.17;;
22929;SDS011;11630;42.660;23.292;2022-12-18T07:48:12;17.87;;;10.53;;
22929;SDS011;11630;42.660;23.292;2022-12-18T07:50:43;24.07;;;13.93;;
22929;SDS011;11630;42.660;23.292;2022-12-18T07:53:13;22.30;;;13.90;;
22929;SDS011;11630;42.660;23.292;2022-12-18T07:55:45;23.87;;;14.83;;
22929;SDS011;11630;42.660;23.292;2022-12-18T07:58:16;24.73;;;16.73;;
22929;SDS011;11630;42.660;23.292;2022-12-18T08:00:47;23.03;;;15.10;;
22929;SDS011;11630;42.660;23.292;2022-12-18T08:03:18;20.43;;;14.43;;
22929;SDS011;11630;42.660;23.292;2022-12-18T08:05:49;24.03;;;15.80;;
22929;SDS011;11630;42.660;23.292;2022-12-18T08:08:20;25.83;;;17.57;;
22929;SDS011;11630;42.660;23.292;2022-12-18T08:10:50;24.70;;;16.10;;
22929;SDS011;11630;42.660;23.292;2022-12-18T08:13:21;24.07;;;16.03;;
22929;SDS011;11630;42.660;23.292;2022-12-18T08:16:03;24.97;;;17.57;;
22929;SDS011;11630;42.660;23.292;2022-12-18T08:18:34;21.30;;;15.27;;
22929;SDS011;11630;42.660;23.292;2022-12-18T08:23:41;24.33;;;16.53;;
22929;SDS011;11630;42.660;23.292;2022-12-18T08:26:12;27.60;;;17.77;;
22929;SDS011;11630;42.660;23.292;2022-12-18T08:28:42;27.73;;;17.57;;
22929;SDS011;11630;42.660;23.292;2022-12-18T08:31:13;22.57;;;15.20;;
22929;SDS011;11630;42.660;23.292;2022-12-18T08:33:44;29.13;;;17.83;;
22929;SDS011;11630;42.660;23.292;2022-12-18T08:36:14;28.40;;;16.63;;
22929;SDS011;11630;42.660;23.292;2022-12-18T08:38:45;25.93;;;17.27;;
22929;SDS011;11630;42.660;23.292;2022-12-18T08:41:17;31.30;;;18.57;;
22929;SDS011;11630;42.660;23.292;2022-12-18T08:43:49;28.50;;;18.37;;
22929;SDS011;11630;42.660;23.292;2022-12-18T08:46:39;23.60;;;15.20;;
22929;SDS011;11630;42.660;23.292;2022-12-18T08:49:11;29.80;;;18.00;;
22929;SDS011;11630;42.660;23.292;2022-12-18T08:51:42;32.97;;;19.07;;
22929;SDS011;11630;42.660;23.292;2022-12-18T08:54:13;31.10;;;18.80;;
22929;SDS011;11630;42.660;23.292;2022-12-18T08:56:44;29.30;;;17.73;;
22929;SDS011;11630;42.660;23.292;2022-12-18T08:59:15;34.50;;;18.80;;
22929;SDS011;11630;42.660;23.292;2022-12-18T09:01:46;28.83;;;18.30;;
22929;SDS011;11630;42.660;23.292;2022-12-18T09:04:17;34.60;;;17.87;;
22929;SDS011;11630;42.660;23.292;2022-12-18T09:06:47;28.63;;;17.87;;
22929;SDS011;11630;42.660;23.292;2022-12-18T09:09:18;24.63;;;17.67;;
22929;SDS011;11630;42.660;23.292;2022-12-18T09:11:49;29.93;;;18.97;;
22929;SDS011;11630;42.660;23.292;2022-12-18T09:14:20;27.40;;;19.73;;
22929;SDS011;11630;42.660;23.292;2022-12-18T09:16:51;25.83;;;18.73;;
22929;SDS011;11630;42.660;23.292;2022-12-18T09:19:22;29.03;;;18.97;;
22929;SDS011;11630;42.660;23.292;2022-12-18T09:21:53;30.07;;;19.60;;
22929;SDS011;11630;42.660;23.292;2022-12-18T09:24:24;29.87;;;19.67;;
22929;SDS011;11630;42.660;23.292;2022-12-18T09:26:55;29.03;;;18.67;;
22929;SDS011;11630;42.660;23.292;2022-12-18T09:29:25;32.90;;;18.60;;
22929;SDS011;11630;42.660;23.292;2022-12-18T09:31:55;31.40;;;18.97;;
22929;SDS011;11630;42.660;23.292;2022-12-18T09:34:25;28.90;;;19.07;;
22929;SDS011;11630;42.660;23.292;2022-12-18T09:36:56;27.80;;;16.70;;
22929;SDS011;11630;42.660;23.292;2022-12-18T09:39:27;27.20;;;17.00;;
22929;SDS011;11630;42.660;23.292;2022-12-18T09:41:58;23.80;;;14.43;;
22929;SDS011;11630;42.660;23.292;2022-12-18T09:44:30;29.53;;;17.80;;
22929;SDS011;11630;42.660;23.292;2022-12-18T09:47:18;27.00;;;18.03;;
22929;SDS011;11630;42.660;23.292;2022-12-18T09:49:49;28.40;;;17.83;;
22929;SDS011;11630;42.660;23.292;2022-12-18T09:55:49;29.93;;;18.10;;
22929;SDS011;11630;42.660;23.292;2022-12-18T09:58:00;30.23;;;19.43;;
22929;SDS011;11630;42.660;23.292;2022-12-18T10:00:30;29.37;;;17.80;;
22929;SDS011;11630;42.660;23.292;2022-12-18T10:03:08;31.40;;;18.37;;
22929;SDS011;11630;42.660;23.292;2022-12-18T10:05:54;29.83;;;17.40;;
22929;SDS011;11630;42.660;23.292;2022-12-18T10:08:25;27.93;;;19.00;;
22929;SDS011;11630;42.660;23.292;2022-12-18T10:11:29;29.40;;;18.07;;
22929;SDS011;11630;42.660;23.292;2022-12-18T10:14:15;26.23;;;16.83;;
22929;SDS011;11630;42.660;23.292;2022-12-18T10:19:33;25.80;;;17.33;;
22929;SDS011;11630;42.660;23.292;2022-12-18T10:22:19;31.27;;;17.63;;
22929;SDS011;11630;42.660;23.292;2022-12-18T10:25:06;27.03;;;16.17;;
22929;SDS011;11630;42.660;23.292;2022-12-18T10:27:42;27.50;;;15.40;;
22929;SDS011;11630;42.660;23.292;2022-12-18T10:30:15;23.77;;;15.80;;
22929;SDS011;11630;42.660;23.292;2022-12-18T10:32:46;22.23;;;13.40;;
22929;SDS011;11630;42.660;23.292;2022-12-18T10:35:24;24.33;;;15.67;;
22929;SDS011;11630;42.660;23.292;2022-12-18T10:38:06;25.27;;;14.93;;
22929;SDS011;11630;42.660;23.292;2022-12-18T10:40:51;23.27;;;15.57;;
22929;SDS011;11630;42.660;23.292;2022-12-18T10:43:33;28.70;;;16.63;;
22929;SDS011;11630;42.660;23.292;2022-12-18T10:48:52;28.37;;;14.37;;
22929;SDS011;11630;42.660;23.292;2022-12-18T10:51:26;18.37;;;11.50;;
22929;SDS011;11630;42.660;23.292;2022-12-18T10:54:06;27.80;;;14.83;;
22929;SDS011;11630;42.660;23.292;2022-12-18T10:56:49;19.77;;;12.33;;
22929;SDS011;11630;42.660;23.292;2022-12-18T10:59:20;22.97;;;14.80;;
22929;SDS011;11630;42.660;23.292;2022-12-18T11:01:55;12.20;;;8.73;;
22929;SDS011;11630;42.660;23.292;2022-12-18T11:04:26;23.17;;;13.67;;
22929;SDS011;11630;42.660;23.292;2022-12-18T11:07:01;28.20;;;15.00;;
22929;SDS011;11630;42.660;23.292;2022-12-18T11:09:38;20.40;;;13.53;;
22929;SDS011;11630;42.660;23.292;2022-12-18T11:12:19;25.43;;;13.67;;
22929;SDS011;11630;42.660;23.292;2022-12-18T11:14:51;25.87;;;13.33;;
22929;SDS011;11630;42.660;23.292;2022-12-18T11:17:32;20.90;;;13.27;;
22929;SDS011;11630;42.660;23.292;2022-12-18T11:20:06;15.03;;;9.43;;
22929;SDS011;11630;42.660;23.292;2022-12-18T11:22:55;16.77;;;10.57;;
22929;SDS011;11630;42.660;23.292;2022-12-18T11:25:27;13.20;;;8.73;;
22929;SDS011;11630;42.660;23.292;2022-12-18T11:28:02;20.10;;;12.40;;
22929;SDS011;11630;42.660;23.292;2022-12-18T11:30:34;19.97;;;13.40;;
22929;SDS011;11630;42.660;23.292;2022-12-18T11:33:13;25.90;;;13.73;;
22929;SDS011;11630;42.660;23.292;2022-12-18T11:35:49;20.63;;;13.30;;
22929;SDS011;11630;42.660;23.292;2022-12-18T11:38:29;16.10;;;10.00;;
22929;SDS011;11630;42.660;23.292;2022-12-18T11:41:04;21.93;;;12.50;;
22929;SDS011;11630;42.660;23.292;2022-12-18T11:46:15;19.33;;;11.73;;
22929;SDS011;11630;42.660;23.292;2022-12-18T11:48:59;17.10;;;11.67;;
22929;SDS011;11630;42.660;23.292;2022-12-18T11:51:35;16.70;;;9.87;;
22929;SDS011;11630;42.660;23.292;2022-12-18T11:54:12;21.17;;;13.10;;
22929;SDS011;11630;42.660;23.292;2022-12-18T11:56:48;16.93;;;10.40;;
22929;SDS011;11630;42.660;23.292;2022-12-18T12:05:08;25.27;;;14.17;;
22929;SDS011;11630;42.660;23.292;2022-12-18T12:10:37;19.90;;;12.70;;
22929;SDS011;11630;42.660;23.292;2022-12-18T12:13:32;20.73;;;12.70;;
22929;SDS011;11630;42.660;23.292;2022-12-18T12:16:09;21.77;;;12.83;;
22929;SDS011;11630;42.660;23.292;2022-12-18T12:18:50;23.27;;;11.77;;
22929;SDS011;11630;42.660;23.292;2022-12-18T12:40:46;23.87;;;14.50;;
22929;SDS011;11630;42.660;23.292;2022-12-18T12:43:22;28.57;;;14.57;;
22929;SDS011;11630;42.660;23.292;2022-12-18T12:53:53;24.57;;;14.73;;
22929;SDS011;11630;42.660;23.292;2022-12-18T12:56:24;24.23;;;14.43;;
22929;SDS011;11630;42.660;23.292;2022-12-18T12:59:02;26.83;;;16.53;;
22929;SDS011;11630;42.660;23.292;2022-12-18T13:01:50;28.53;;;15.63;;
22929;SDS011;11630;42.660;23.292;2022-12-18T13:07:29;31.03;;;16.37;;
22929;SDS011;11630;42.660;23.292;2022-12-18T13:18:21;27.07;;;15.77;;
22929;SDS011;11630;42.660;23.292;2022-12-18T13:23:34;29.97;;;15.50;;
22929;SDS011;11630;42.660;23.292;2022-12-18T13:28:50;22.20;;;14.33;;
22929;SDS011;11630;42.660;23.292;2022-12-18T13:34:24;22.57;;;14.40;;
22929;SDS011;11630;42.660;23.292;2022-12-18T13:39:54;29.97;;;15.53;;
22929;SDS011;11630;42.660;23.292;2022-12-18T13:42:58;28.17;;;15.90;;
22929;SDS011;11630;42.660;23.292;2022-12-18T13:45:38;29.77;;;16.37;;
22929;SDS011;11630;42.660;23.292;2022-12-18T13:48:20;21.80;;;13.53;;
22929;SDS011;11630;42.660;23.292;2022-12-18T13:50:57;22.90;;;16.33;;
22929;SDS011;11630;42.660;23.292;2022-12-18T13:53:28;25.70;;;16.63;;
22929;SDS011;11630;42.660;23.292;2022-12-18T13:55:59;21.23;;;12.93;;
22929;SDS011;11630;42.660;23.292;2022-12-18T13:58:31;25.80;;;16.40;;
22929;SDS011;11630;42.660;23.292;2022-12-18T14:01:01;25.07;;;15.70;;
22929;SDS011;11630;42.660;23.292;2022-12-18T14:03:31;26.37;;;16.63;;
22929;SDS011;11630;42.660;23.292;2022-12-18T14:06:04;28.47;;;16.33;;
22929;SDS011;11630;42.660;23.292;2022-12-18T14:08:37;27.60;;;15.37;;
22929;SDS011;11630;42.660;23.292;2022-12-18T14:11:07;26.30;;;17.27;;
22929;SDS011;11630;42.660;23.292;2022-12-18T14:13:40;21.43;;;12.27;;
22929;SDS011;11630;42.660;23.292;2022-12-18T14:16:11;22.60;;;14.37;;
22929;SDS011;11630;42.660;23.292;2022-12-18T14:18:45;25.03;;;14.77;;
22929;SDS011;11630;42.660;23.292;2022-12-18T14:21:27;30.27;;;15.90;;
22929;SDS011;11630;42.660;23.292;2022-12-18T14:24:06;30.67;;;16.23;;
22929;SDS011;11630;42.660;23.292;2022-12-18T14:26:47;23.10;;;14.50;;
22929;SDS011;11630;42.660;23.292;2022-12-18T14:29:29;23.07;;;14.10;;
22929;SDS011;11630;42.660;23.292;2022-12-18T14:32:07;25.40;;;14.67;;
22929;SDS011;11630;42.660;23.292;2022-12-18T14:34:38;25.60;;;14.83;;
22929;SDS011;11630;42.660;23.292;2022-12-18T14:37:10;18.67;;;11.40;;
22929;SDS011;11630;42.660;23.292;2022-12-18T14:39:51;26.30;;;15.63;;
22929;SDS011;11630;42.660;23.292;2022-12-18T14:42:33;25.40;;;14.27;;
22929;SDS011;11630;42.660;23.292;2022-12-18T14:48:19;29.00;;;15.93;;
22929;SDS011;11630;42.660;23.292;2022-12-18T14:50:43;33.40;;;16.10;;
22929;SDS011;11630;42.660;23.292;2022-12-18T14:53:18;23.03;;;14.63;;
22929;SDS011;11630;42.660;23.292;2022-12-18T14:55:50;26.03;;;15.17;;
22929;SDS011;11630;42.660;23.292;2022-12-18T14:58:22;20.57;;;13.50;;
22929;SDS011;11630;42.660;23.292;2022-12-18T15:00:53;25.80;;;13.93;;
22929;SDS011;11630;42.660;23.292;2022-12-18T15:03:24;22.57;;;13.67;;
22929;SDS011;11630;42.660;23.292;2022-12-18T15:05:55;21.17;;;13.27;;
22929;SDS011;11630;42.660;23.292;2022-12-18T15:08:30;28.07;;;14.13;;
22929;SDS011;11630;42.660;23.292;2022-12-18T15:11:00;24.53;;;13.07;;
22929;SDS011;11630;42.660;23.292;2022-12-18T15:13:32;26.40;;;14.30;;
22929;SDS011;11630;42.660;23.292;2022-12-18T15:16:02;26.33;;;15.23;;
22929;SDS011;11630;42.660;23.292;2022-12-18T15:18:34;33.50;;;15.97;;
22929;SDS011;11630;42.660;23.292;2022-12-18T15:21:10;22.27;;;13.27;;
22929;SDS011;11630;42.660;23.292;2022-12-18T15:26:19;20.40;;;13.37;;
22929;SDS011;11630;42.660;23.292;2022-12-18T15:28:54;21.63;;;13.20;;
22929;SDS011;11630;42.660;23.292;2022-12-18T15:31:29;18.97;;;11.57;;
22929;SDS011;11630;42.660;23.292;2022-12-18T15:36:39;20.57;;;12.63;;
22929;SDS011;11630;42.660;23.292;2022-12-18T15:39:11;21.80;;;14.10;;
22929;SDS011;11630;42.660;23.292;2022-12-18T15:41:42;19.00;;;13.13;;
22929;SDS011;11630;42.660;23.292;2022-12-18T15:44:29;20.23;;;12.57;;
22929;SDS011;11630;42.660;23.292;2022-12-18T15:47:01;23.13;;;12.87;;
22929;SDS011;11630;42.660;23.292;2022-12-18T15:49:34;21.00;;;13.27;;
22929;SDS011;11630;42.660;23.292;2022-12-18T15:52:05;22.80;;;12.77;;
22929;SDS011;11630;42.660;23.292;2022-12-18T15:54:37;20.50;;;13.17;;
22929;SDS011;11630;42.660;23.292;2022-12-18T15:57:24;22.47;;;14.57;;
22929;SDS011;11630;42.660;23.292;2022-12-18T15:59:57;23.10;;;12.27;;
22929;SDS011;11630;42.660;23.292;2022-12-18T16:02:28;22.70;;;13.47;;
22929;SDS011;11630;42.660;23.292;2022-12-18T16:04:58;19.67;;;12.40;;
22929;SDS011;11630;42.660;23.292;2022-12-18T16:07:29;21.73;;;12.93;;
22929;SDS011;11630;42.660;23.292;2022-12-18T16:10:01;22.73;;;13.53;;
22929;SDS011;11630;42.660;23.292;2022-12-18T16:12:31;18.43;;;10.37;;
22929;SDS011;11630;42.660;23.292;2022-12-18T16:15:03;22.33;;;13.10;;
22929;SDS011;11630;42.660;23.292;2022-12-18T16:17:34;24.33;;;14.43;;
22929;SDS011;11630;42.660;23.292;2022-12-18T16:20:07;22.77;;;12.93;;
22929;SDS011;11630;42.660;23.292;2022-12-18T16:22:38;21.50;;;12.73;;
22929;SDS011;11630;42.660;23.292;2022-12-18T16:25:11;22.60;;;12.77;;
22929;SDS011;11630;42.660;23.292;2022-12-18T16:27:43;23.73;;;12.37;;